createdAt,value
2017-06-28T00:02:26.460Z,9.73
2017-06-28T00:04:54.033Z,10.60
2017-06-28T00:07:21.641Z,9.53
2017-06-28T00:09:50.187Z,10.43
2017-06-28T00:12:17.775Z,9.77
2017-06-28T00:14:45.394Z,10.10
2017-06-28T00:17:13.003Z,9.77
2017-06-28T00:19:40.632Z,9.80
2017-06-28T00:22:08.243Z,9.80
2017-06-28T00:24:35.860Z,9.30
2017-06-28T00:27:03.456Z,9.73
2017-06-28T00:29:31.097Z,9.60
2017-06-28T00:31:58.697Z,9.10
2017-06-28T00:34:26.320Z,10.00
2017-06-28T00:36:53.953Z,9.27
2017-06-28T00:39:21.566Z,10.40
2017-06-28T00:41:49.172Z,9.73
2017-06-28T00:44:16.766Z,9.50
2017-06-28T00:46:44.398Z,9.40
2017-06-28T00:49:11.994Z,10.53
2017-06-28T00:51:39.624Z,10.20
2017-06-28T00:54:07.234Z,9.83
2017-06-28T00:56:34.868Z,9.83
2017-06-28T00:59:02.463Z,11.93
2017-06-28T01:01:30.074Z,10.13
2017-06-28T01:03:57.704Z,11.13
2017-06-28T01:06:25.299Z,9.93
2017-06-28T01:08:52.929Z,10.70
2017-06-28T01:11:20.532Z,10.07
2017-06-28T01:13:48.169Z,10.50
2017-06-28T01:16:15.767Z,9.80
2017-06-28T01:18:43.383Z,9.70
2017-06-28T01:21:10.968Z,9.40
2017-06-28T01:23:38.543Z,9.67
2017-06-28T01:26:06.151Z,10.47
2017-06-28T01:28:33.753Z,10.20
2017-06-28T01:31:01.401Z,10.73
2017-06-28T01:33:29.038Z,10.57
2017-06-28T01:35:56.705Z,10.40
2017-06-28T01:38:24.300Z,9.57
2017-06-28T01:40:51.902Z,9.00
2017-06-28T01:43:19.518Z,10.57
2017-06-28T01:45:47.154Z,10.00
2017-06-28T01:48:14.787Z,9.97
2017-06-28T01:50:42.430Z,11.07
2017-06-28T01:53:10.088Z,10.20
2017-06-28T01:55:37.718Z,10.47
2017-06-28T01:58:05.382Z,10.70
2017-06-28T02:00:32.975Z,9.73
2017-06-28T02:03:00.600Z,9.50
2017-06-28T02:05:28.211Z,9.83
2017-06-28T02:07:56.570Z,9.57
2017-06-28T02:10:24.200Z,10.00
2017-06-28T02:12:51.813Z,9.57
2017-06-28T02:15:19.442Z,9.37
2017-06-28T02:17:47.024Z,8.73
2017-06-28T02:20:14.644Z,10.10
2017-06-28T02:22:42.260Z,10.43
2017-06-28T02:25:10.659Z,10.30
2017-06-28T02:27:38.261Z,10.97
2017-06-28T02:30:05.890Z,9.10
2017-06-28T02:32:33.498Z,9.43
2017-06-28T02:35:01.128Z,10.07
2017-06-28T02:37:28.730Z,10.20
2017-06-28T02:39:57.094Z,10.37
2017-06-28T02:42:24.707Z,10.00
2017-06-28T02:44:52.332Z,9.17
2017-06-28T02:47:19.942Z,9.70
2017-06-28T02:49:47.527Z,10.10
2017-06-28T02:52:15.930Z,10.23
2017-06-28T02:54:44.312Z,9.93
2017-06-28T02:57:11.946Z,9.10
2017-06-28T02:59:39.524Z,8.77
2017-06-28T03:02:07.148Z,9.60
2017-06-28T03:04:34.793Z,10.30
2017-06-28T03:07:14.134Z,9.13
2017-06-28T03:09:41.749Z,9.30
2017-06-28T03:12:10.079Z,9.70
2017-06-28T03:14:37.699Z,10.60
2017-06-28T03:17:05.291Z,8.83
2017-06-28T03:19:32.891Z,9.73
2017-06-28T03:22:00.483Z,9.00
2017-06-28T03:24:28.163Z,9.40
2017-06-28T03:26:55.777Z,10.80
2017-06-28T03:29:23.379Z,8.60
2017-06-28T03:31:50.978Z,9.07
2017-06-28T03:34:18.555Z,9.00
2017-06-28T03:36:46.173Z,8.20
2017-06-28T03:39:13.796Z,10.03
2017-06-28T03:41:42.171Z,9.10
2017-06-28T03:44:09.767Z,9.67
2017-06-28T03:46:37.384Z,9.80
2017-06-28T03:49:05.753Z,7.70
2017-06-28T03:51:33.352Z,8.00
2017-06-28T03:54:00.979Z,8.13
2017-06-28T03:56:28.619Z,8.13
2017-06-28T03:58:56.216Z,6.93
2017-06-28T04:01:23.815Z,5.33
2017-06-28T04:03:51.486Z,6.17
2017-06-28T04:06:19.051Z,5.27
2017-06-28T04:08:47.471Z,5.50
2017-06-28T04:11:15.063Z,4.50
2017-06-28T04:13:42.697Z,5.97
2017-06-28T04:16:11.126Z,5.30
2017-06-28T04:18:38.729Z,4.70
2017-06-28T04:21:07.129Z,4.90
2017-06-28T04:23:34.731Z,5.03
2017-06-28T04:26:02.362Z,5.27
2017-06-28T04:28:29.972Z,4.80
2017-06-28T04:30:57.591Z,5.50
2017-06-28T04:33:25.192Z,5.10
2017-06-28T04:35:53.592Z,4.73
2017-06-28T04:38:21.951Z,4.73
2017-06-28T04:40:49.587Z,4.50
2017-06-28T04:43:18.378Z,4.30
2017-06-28T04:45:45.984Z,4.20
2017-06-28T04:48:14.352Z,4.03
2017-06-28T04:50:42.742Z,4.43
2017-06-28T04:53:10.375Z,4.57
2017-06-28T04:55:37.986Z,5.50
2017-06-28T04:58:05.610Z,4.90
2017-06-28T05:00:33.967Z,4.77
2017-06-28T05:03:01.605Z,4.77
2017-06-28T05:05:29.213Z,5.93
2017-06-28T05:07:56.833Z,4.50
2017-06-28T05:10:24.500Z,5.43
2017-06-28T05:12:52.096Z,5.50
2017-06-28T05:15:20.475Z,6.00
2017-06-28T05:17:48.117Z,5.17
2017-06-28T05:20:15.754Z,5.60
2017-06-28T05:22:43.353Z,5.60
2017-06-28T05:25:11.215Z,6.10
2017-06-28T05:27:38.808Z,5.97
2017-06-28T05:30:06.408Z,6.07
2017-06-28T05:32:35.238Z,6.37
2017-06-28T05:35:03.616Z,5.30
2017-06-28T05:37:31.977Z,5.47
2017-06-28T05:40:00.358Z,6.43
2017-06-28T05:42:28.739Z,5.37
2017-06-28T05:44:56.331Z,7.30
2017-06-28T05:47:23.960Z,6.70
2017-06-28T05:49:52.348Z,6.43
2017-06-28T05:52:20.044Z,6.80
2017-06-28T05:54:47.653Z,5.60
2017-06-28T05:57:16.057Z,6.07
2017-06-28T05:59:43.707Z,6.60
2017-06-28T06:02:12.086Z,6.40
2017-06-28T06:04:40.464Z,6.20
2017-06-28T06:07:08.031Z,5.37
2017-06-28T06:09:35.685Z,5.90
2017-06-28T06:12:03.267Z,5.90
2017-06-28T06:14:30.861Z,5.73
2017-06-28T06:16:58.487Z,5.40
2017-06-28T06:19:26.118Z,5.10
2017-06-28T06:21:54.504Z,6.43
2017-06-28T06:24:22.893Z,5.70
2017-06-28T06:26:51.278Z,5.80
2017-06-28T06:29:18.891Z,6.10
2017-06-28T06:31:46.495Z,6.20
2017-06-28T06:34:14.845Z,6.27
2017-06-28T06:36:42.497Z,6.37
2017-06-28T06:39:10.082Z,5.40
2017-06-28T06:41:38.488Z,5.77
2017-06-28T06:44:06.101Z,6.20
2017-06-28T06:46:33.695Z,5.90
2017-06-28T06:49:01.313Z,5.80
2017-06-28T06:51:28.920Z,6.00
2017-06-28T06:53:56.526Z,7.07
2017-06-28T06:56:24.121Z,5.83
2017-06-28T06:58:52.498Z,5.97
2017-06-28T07:01:20.089Z,6.50
2017-06-28T07:03:47.719Z,6.70
2017-06-28T07:06:16.080Z,6.70
2017-06-28T07:08:43.716Z,6.40
2017-06-28T07:11:11.315Z,6.27
2017-06-28T07:13:39.688Z,6.43
2017-06-28T07:16:08.074Z,6.70
2017-06-28T07:18:35.695Z,6.10
2017-06-28T07:21:03.322Z,6.03
2017-06-28T07:23:30.925Z,5.50
2017-06-28T07:25:58.550Z,5.90
2017-06-28T07:28:26.148Z,5.70
2017-06-28T07:30:53.767Z,6.50
2017-06-28T07:33:21.384Z,6.50
2017-06-28T07:35:49.003Z,6.60
2017-06-28T07:38:16.600Z,6.97
2017-06-28T07:40:44.996Z,6.90
2017-06-28T07:43:13.396Z,9.73
2017-06-28T07:45:40.987Z,7.97
2017-06-28T07:48:08.616Z,8.03
2017-06-28T07:50:36.221Z,7.77
2017-06-28T07:53:03.862Z,8.83
2017-06-28T07:55:31.496Z,8.70
2017-06-28T07:57:59.143Z,8.20
2017-06-28T08:00:27.512Z,8.87
2017-06-28T08:02:55.147Z,8.33
2017-06-28T08:05:22.774Z,9.77
2017-06-28T08:07:50.411Z,9.20
2017-06-28T08:10:18.814Z,9.63
2017-06-28T08:12:46.412Z,9.47
2017-06-28T08:15:14.045Z,9.90
2017-06-28T08:17:41.656Z,9.77
2017-06-28T08:20:09.288Z,9.50
2017-06-28T08:22:36.876Z,10.40
2017-06-28T08:25:05.346Z,10.53
2017-06-28T08:27:32.985Z,8.07
2017-06-28T08:30:00.587Z,9.20
2017-06-28T08:32:28.970Z,8.40
2017-06-28T08:34:57.317Z,7.63
2017-06-28T08:37:24.919Z,8.27
2017-06-28T08:39:52.636Z,8.17
2017-06-28T08:42:20.253Z,8.27
2017-06-28T08:44:47.859Z,7.70
2017-06-28T08:47:15.752Z,7.20
2017-06-28T08:49:44.110Z,7.33
2017-06-28T08:52:11.782Z,7.50
2017-06-28T08:54:39.404Z,7.70
2017-06-28T08:57:07.038Z,7.30
2017-06-28T08:59:34.646Z,6.87
2017-06-28T09:02:02.258Z,7.10
2017-06-28T09:04:29.883Z,7.07
2017-06-28T09:06:57.508Z,5.53
2017-06-28T09:09:25.846Z,5.80
2017-06-28T09:11:53.514Z,5.60
2017-06-28T09:14:21.115Z,5.10
2017-06-28T09:16:48.732Z,6.20
2017-06-28T09:19:16.354Z,4.50
2017-06-28T09:21:43.953Z,4.03
2017-06-28T09:24:12.331Z,3.73
2017-06-28T09:26:40.675Z,3.80
2017-06-28T09:29:08.256Z,4.10
2017-06-28T09:31:36.648Z,4.00
2017-06-28T09:34:04.987Z,4.37
2017-06-28T09:36:32.587Z,3.70
2017-06-28T09:39:01.019Z,3.50
2017-06-28T09:41:28.619Z,3.77
2017-06-28T09:43:57.009Z,2.83
2017-06-28T09:46:25.385Z,2.80
2017-06-28T09:48:52.962Z,2.70
2017-06-28T09:51:20.585Z,2.77
2017-06-28T09:53:48.986Z,2.20
2017-06-28T09:56:16.607Z,2.87
2017-06-28T09:58:44.231Z,2.50
2017-06-28T10:01:11.835Z,2.50
2017-06-28T10:03:39.456Z,2.70
2017-06-28T10:06:07.076Z,2.40
2017-06-28T10:08:34.701Z,2.57
2017-06-28T10:11:02.289Z,2.00
2017-06-28T10:13:29.917Z,1.80
2017-06-28T10:15:57.517Z,1.60
2017-06-28T10:18:25.882Z,1.80
2017-06-28T10:20:54.294Z,1.80
2017-06-28T10:23:21.893Z,1.70
2017-06-28T10:25:49.500Z,2.10
2017-06-28T10:28:17.846Z,2.17
2017-06-28T10:30:45.470Z,2.20
2017-06-28T10:33:13.070Z,2.10
2017-06-28T10:35:40.700Z,1.90
2017-06-28T10:38:08.283Z,2.20
2017-06-28T10:40:35.926Z,2.00
2017-06-28T10:43:03.515Z,2.10
2017-06-28T10:45:31.126Z,1.93
2017-06-28T10:47:59.722Z,1.83
2017-06-28T10:50:27.302Z,2.10
2017-06-28T10:52:54.953Z,2.00
2017-06-28T10:55:22.571Z,2.40
2017-06-28T10:57:51.114Z,2.30
2017-06-28T11:00:18.717Z,2.30
2017-06-28T11:02:46.357Z,2.40
2017-06-28T11:05:14.437Z,2.20
2017-06-28T11:07:42.814Z,2.30
2017-06-28T11:10:11.178Z,2.23
2017-06-28T11:12:40.181Z,1.90
2017-06-28T11:15:07.778Z,1.93
2017-06-28T11:17:35.368Z,1.57
2017-06-28T11:20:03.004Z,1.80
2017-06-28T11:22:30.610Z,1.60
2017-06-28T11:24:58.248Z,1.80
2017-06-28T11:27:25.836Z,1.50
2017-06-28T11:29:53.419Z,1.80
2017-06-28T11:32:21.045Z,1.43
2017-06-28T11:34:48.645Z,1.40
2017-06-28T11:37:16.291Z,1.50
2017-06-28T11:39:44.671Z,1.40
2017-06-28T11:42:13.041Z,1.10
2017-06-28T11:44:41.405Z,1.70
2017-06-28T11:47:10.016Z,1.63
2017-06-28T11:49:37.609Z,1.50
2017-06-28T11:52:05.226Z,1.40
2017-06-28T11:54:33.582Z,1.53
2017-06-28T11:57:01.221Z,1.50
2017-06-28T11:59:28.836Z,1.50
2017-06-28T12:01:57.179Z,1.70
2017-06-28T12:04:24.819Z,1.13
2017-06-28T12:06:52.414Z,1.30
2017-06-28T12:09:20.822Z,1.53
2017-06-28T12:11:48.412Z,1.60
2017-06-28T12:14:16.027Z,1.70
2017-06-28T12:16:44.395Z,1.40
2017-06-28T12:19:12.040Z,1.43
2017-06-28T12:21:39.633Z,1.47
2017-06-28T12:24:07.275Z,1.47
2017-06-28T12:26:35.645Z,1.37
2017-06-28T12:29:03.222Z,1.50
2017-06-28T12:31:30.862Z,2.00
2017-06-28T12:33:59.226Z,1.40
2017-06-28T12:36:26.870Z,1.67
2017-06-28T12:38:54.490Z,1.60
2017-06-28T12:41:22.898Z,1.47
2017-06-28T12:43:50.527Z,1.80
2017-06-28T12:46:18.907Z,1.70
2017-06-28T12:48:47.267Z,1.60
2017-06-28T12:51:14.940Z,1.33
2017-06-28T12:53:43.279Z,1.60
2017-06-28T12:56:10.923Z,1.47
2017-06-28T12:58:38.528Z,1.53
2017-06-28T13:01:06.127Z,1.60
2017-06-28T13:03:33.725Z,1.57
2017-06-28T13:06:01.408Z,1.63
2017-06-28T13:08:29.786Z,1.50
2017-06-28T13:10:58.166Z,1.30
2017-06-28T13:13:26.557Z,1.73
2017-06-28T13:15:54.147Z,1.50
2017-06-28T13:18:21.777Z,1.00
2017-06-28T13:20:50.136Z,0.80
2017-06-28T13:23:17.879Z,1.27
2017-06-28T13:25:45.484Z,1.10
2017-06-28T13:28:13.867Z,1.00
2017-06-28T13:30:41.497Z,0.90
2017-06-28T13:33:09.092Z,0.90
2017-06-28T13:35:36.740Z,0.90
2017-06-28T13:38:05.106Z,1.20
2017-06-28T13:40:32.723Z,1.00
2017-06-28T13:43:00.315Z,1.10
2017-06-28T13:45:27.919Z,1.17
2017-06-28T13:47:55.547Z,1.17
2017-06-28T13:50:24.892Z,1.30
2017-06-28T13:52:52.589Z,1.20
2017-06-28T13:55:20.181Z,1.10
2017-06-28T13:57:47.837Z,1.03
2017-06-28T14:00:16.223Z,1.10
2017-06-28T14:02:43.871Z,1.07
2017-06-28T14:05:11.551Z,1.37
2017-06-28T14:07:39.195Z,1.03
2017-06-28T14:10:06.776Z,1.23
2017-06-28T14:12:35.137Z,1.40
2017-06-28T14:15:03.525Z,1.30
2017-06-28T14:17:31.966Z,1.50
2017-06-28T14:19:59.577Z,1.30
2017-06-28T14:22:27.183Z,1.00
2017-06-28T14:24:54.859Z,1.23
2017-06-28T14:27:22.429Z,1.20
2017-06-28T14:29:50.040Z,1.20
2017-06-28T14:32:17.678Z,1.17
2017-06-28T14:34:46.028Z,1.00
2017-06-28T14:37:13.645Z,1.10
2017-06-28T14:39:41.316Z,1.30
2017-06-28T14:42:09.770Z,1.30
2017-06-28T14:44:37.350Z,1.17
2017-06-28T14:47:04.954Z,1.40
2017-06-28T14:49:32.552Z,1.50
2017-06-28T14:52:00.160Z,1.47
2017-06-28T14:54:27.779Z,1.40
2017-06-28T14:56:55.383Z,1.20
2017-06-28T14:59:23.012Z,1.33
2017-06-28T15:01:50.606Z,1.33
2017-06-28T15:04:18.217Z,1.20
2017-06-28T15:06:45.811Z,1.50
2017-06-28T15:09:13.477Z,1.20
2017-06-28T15:11:41.079Z,1.23
2017-06-28T15:14:09.460Z,1.27
2017-06-28T15:16:37.100Z,1.30
2017-06-28T15:19:05.460Z,1.20
2017-06-28T15:21:33.072Z,1.27
2017-06-28T15:24:00.656Z,1.53
2017-06-28T15:26:28.245Z,1.60
2017-06-28T15:28:56.643Z,1.60
2017-06-28T15:31:24.276Z,1.20
2017-06-28T15:33:51.864Z,1.70
2017-06-28T15:36:19.492Z,1.60
2017-06-28T15:38:47.074Z,1.20
2017-06-28T15:41:14.671Z,1.50
2017-06-28T15:43:42.422Z,1.33
2017-06-28T15:46:10.791Z,1.43
2017-06-28T15:48:39.177Z,1.20
2017-06-28T15:51:07.529Z,1.63
2017-06-28T15:53:56.009Z,1.67
2017-06-28T15:56:45.914Z,1.30
2017-06-28T15:59:13.544Z,1.03
2017-06-28T16:01:41.903Z,1.30
2017-06-28T16:04:10.343Z,1.20
2017-06-28T16:06:37.935Z,1.50
2017-06-28T16:09:05.501Z,1.40
2017-06-28T16:11:33.118Z,1.30
2017-06-28T16:14:00.704Z,1.27
2017-06-28T16:16:28.330Z,1.23
2017-06-28T16:18:56.510Z,1.20
2017-06-28T16:21:24.147Z,1.43
2017-06-28T16:23:51.874Z,0.93
2017-06-28T16:26:20.258Z,1.00
2017-06-28T16:28:48.692Z,1.10
2017-06-28T16:31:16.293Z,0.93
2017-06-28T16:33:43.974Z,1.43
2017-06-28T16:36:11.708Z,1.10
2017-06-28T16:38:39.505Z,1.40
2017-06-28T16:41:07.194Z,1.20
2017-06-28T16:43:34.881Z,1.80
2017-06-28T16:46:02.461Z,1.27
2017-06-28T16:48:30.106Z,0.90
2017-06-28T16:50:57.711Z,1.20
2017-06-28T16:53:26.093Z,1.10
2017-06-28T16:55:54.489Z,1.20
2017-06-28T16:58:22.085Z,1.23
2017-06-28T17:00:49.760Z,1.03
2017-06-28T17:03:17.349Z,1.07
2017-06-28T17:05:45.739Z,1.07
2017-06-28T17:08:13.426Z,1.20
2017-06-28T17:10:41.103Z,1.30
2017-06-28T17:13:08.703Z,1.00
2017-06-28T17:15:36.346Z,0.83
2017-06-28T17:18:03.983Z,1.10
2017-06-28T17:20:31.583Z,1.20
2017-06-28T17:23:00.049Z,1.20
2017-06-28T17:25:27.647Z,1.03
2017-06-28T17:27:55.405Z,1.03
2017-06-28T17:30:23.024Z,1.03
2017-06-28T17:32:50.701Z,1.27
2017-06-28T17:35:18.327Z,1.10
2017-06-28T17:37:45.923Z,1.57
2017-06-28T17:40:13.608Z,1.10
2017-06-28T17:42:41.976Z,1.20
2017-06-28T17:45:10.404Z,1.50
2017-06-28T17:47:41.676Z,1.23
2017-06-28T17:50:09.255Z,1.20
2017-06-28T17:52:36.898Z,1.33
2017-06-28T17:55:04.470Z,1.10
2017-06-28T17:57:32.884Z,1.20
2017-06-28T18:00:00.468Z,1.30
2017-06-28T18:02:28.102Z,1.63
2017-06-28T18:04:59.266Z,1.40
2017-06-28T18:07:26.890Z,1.13
2017-06-28T18:09:54.481Z,1.10
2017-06-28T18:12:22.114Z,1.40
2017-06-28T18:14:49.715Z,1.30
2017-06-28T18:17:17.369Z,1.33
2017-06-28T18:19:44.999Z,1.20
2017-06-28T18:22:13.359Z,2.23
2017-06-28T18:24:40.992Z,1.40
2017-06-28T18:27:08.602Z,1.20
2017-06-28T18:29:36.224Z,1.50
2017-06-28T18:32:03.814Z,1.27
2017-06-28T18:34:31.453Z,1.50
2017-06-28T18:36:59.046Z,1.27
2017-06-28T18:39:26.617Z,1.37
2017-06-28T18:41:54.259Z,1.80
2017-06-28T18:44:22.817Z,1.97
2017-06-28T18:46:50.433Z,1.47
2017-06-28T18:49:18.050Z,1.70
2017-06-28T18:51:45.644Z,1.53
2017-06-28T18:54:13.234Z,1.60
2017-06-28T18:56:40.916Z,1.57
2017-06-28T19:04:54.877Z,1.40
2017-06-28T19:07:24.180Z,1.50
2017-06-28T19:09:51.766Z,2.20
2017-06-28T19:12:19.500Z,1.73
2017-06-28T19:14:47.200Z,1.70
2017-06-28T19:17:15.549Z,1.73
2017-06-28T19:19:43.267Z,1.60
2017-06-28T19:22:11.080Z,1.80
2017-06-28T19:24:39.551Z,1.80
2017-06-28T19:27:07.074Z,1.73
2017-06-28T19:29:34.636Z,1.83
2017-06-28T19:32:02.266Z,1.50
2017-06-28T19:34:29.790Z,1.90
2017-06-28T19:36:58.103Z,1.80
2017-06-28T19:39:25.770Z,1.57
2017-06-28T19:41:53.305Z,1.70
2017-06-28T19:44:20.826Z,2.00
2017-06-28T19:46:48.381Z,2.00
2017-06-28T19:49:15.978Z,2.00
2017-06-28T19:51:43.501Z,2.60
2017-06-28T19:54:11.045Z,2.37
2017-06-28T19:56:38.569Z,2.70
2017-06-28T19:59:06.118Z,2.30
2017-06-28T20:01:33.643Z,2.70
2017-06-28T20:04:02.015Z,2.17
2017-06-28T20:06:29.529Z,2.17
2017-06-28T20:08:57.073Z,2.30
2017-06-28T20:11:24.606Z,2.13
2017-06-28T20:13:53.013Z,1.83
2017-06-28T20:16:20.535Z,2.07
2017-06-28T20:18:48.821Z,2.03
2017-06-28T20:21:17.137Z,2.10
2017-06-28T20:23:44.662Z,2.10
2017-06-28T20:26:12.202Z,2.30
2017-06-28T20:28:40.498Z,2.20
2017-06-28T20:31:08.809Z,2.63
2017-06-28T20:33:36.365Z,1.97
2017-06-28T20:36:03.909Z,2.20
2017-06-28T20:38:31.434Z,2.57
2017-06-28T20:40:59.755Z,2.17
2017-06-28T20:43:27.266Z,2.17
2017-06-28T20:45:54.882Z,2.27
2017-06-28T20:48:22.425Z,2.23
2017-06-28T20:50:49.950Z,1.73
2017-06-28T20:53:18.275Z,1.93
2017-06-28T20:55:45.802Z,1.93
2017-06-28T20:58:13.352Z,1.97
2017-06-28T21:00:40.888Z,2.57
2017-06-28T21:03:08.422Z,1.80
2017-06-28T21:05:35.961Z,1.97
2017-06-28T21:08:03.513Z,1.97
2017-06-28T21:10:31.033Z,2.13
2017-06-28T21:12:58.562Z,2.00
2017-06-28T21:15:26.120Z,2.10
2017-06-28T21:17:53.642Z,1.60
2017-06-28T21:20:21.181Z,2.50
2017-06-28T21:22:48.710Z,1.70
2017-06-28T21:25:16.254Z,1.93
2017-06-28T21:27:44.526Z,2.00
2017-06-28T21:30:12.078Z,2.23
2017-06-28T21:32:39.621Z,2.50
2017-06-28T21:35:07.178Z,2.40
2017-06-28T21:37:34.713Z,1.90
2017-06-28T21:40:03.031Z,1.90
2017-06-28T21:42:30.590Z,2.67
2017-06-28T21:44:58.146Z,2.57
2017-06-28T21:47:25.689Z,2.07
2017-06-28T21:49:53.217Z,2.30
2017-06-28T21:52:21.525Z,2.37
2017-06-28T21:54:49.053Z,2.00
2017-06-28T21:57:17.371Z,2.03
2017-06-28T21:59:44.903Z,1.93
2017-06-28T22:02:12.466Z,2.43
2017-06-28T22:04:40.000Z,2.07
2017-06-28T22:07:07.518Z,2.17
2017-06-28T22:09:35.075Z,2.27
2017-06-28T22:12:02.624Z,2.10
2017-06-28T22:14:30.170Z,1.83
2017-06-28T22:16:57.698Z,2.13
2017-06-28T22:19:37.969Z,1.93
2017-06-28T22:22:05.486Z,1.57
2017-06-28T22:24:33.050Z,1.70
2017-06-28T22:27:00.576Z,1.77
2017-06-28T22:29:28.091Z,2.03
2017-06-28T22:31:56.412Z,1.93
2017-06-28T22:34:23.933Z,2.00
2017-06-28T22:36:52.237Z,2.23
2017-06-28T22:39:19.762Z,1.80
2017-06-28T22:41:48.184Z,2.30
2017-06-28T22:44:15.707Z,2.03
2017-06-28T22:46:43.257Z,1.97
2017-06-28T22:49:11.542Z,2.07
2017-06-28T22:51:39.857Z,2.27
2017-06-28T22:54:07.377Z,2.10
2017-06-28T22:56:35.657Z,2.40
2017-06-28T22:59:03.974Z,1.90
2017-06-28T23:01:31.503Z,1.70
2017-06-28T23:03:59.082Z,2.57
2017-06-28T23:06:26.613Z,2.23
2017-06-28T23:08:54.154Z,2.37
2017-06-28T23:11:22.450Z,2.07
2017-06-28T23:13:49.990Z,2.10
2017-06-28T23:16:18.286Z,2.00
2017-06-28T23:18:45.818Z,2.20
2017-06-28T23:21:14.131Z,2.30
2017-06-28T23:23:41.656Z,2.00
2017-06-28T23:26:09.194Z,2.03
2017-06-28T23:28:36.726Z,2.30
2017-06-28T23:31:04.299Z,2.37
2017-06-28T23:33:31.837Z,2.13
2017-06-28T23:35:59.378Z,2.30
2017-06-28T23:38:26.907Z,1.70
2017-06-28T23:40:54.433Z,2.20
2017-06-28T23:43:21.980Z,2.50
2017-06-28T23:45:49.607Z,2.03
2017-06-28T23:48:17.154Z,2.40
2017-06-28T23:50:45.438Z,2.70
2017-06-28T23:53:13.741Z,2.20
2017-06-28T23:55:41.270Z,2.00
2017-06-28T23:58:09.583Z,1.73
